Time;durP1;ratioP1;P1;durP2;ratioP2;P2;SDS_P1;SDS_P2;PMS_P1;PMS_P2;Temp;Humidity;BMP_temperature;BMP_pressure;BME280_temperature;BME280_humidity;BME280_pressure;Samples;Min_cycle;Max_cycle;Signal;HPM_P1;HPM_P2
2023/06/01 00:02:01;;;;;;;4.30;3.30;;;;;;;;;;5085571;28;20200;-68
2023/06/01 00:04:27;;;;;;;6.55;3.58;;;;;;;;;;5085187;28;20395;-68
2023/06/01 00:06:53;;;;;;;4.72;3.60;;;;;;;;;;5085139;28;20563;-68
2023/06/01 00:09:20;;;;;;;5.65;3.28;;;;;;;;;;5085123;28;20207;-68
2023/06/01 00:11:46;;;;;;;4.93;3.25;;;;;;;;;;5085186;28;20206;-68
2023/06/01 00:14:12;;;;;;;4.65;3.25;;;;;;;;;;5084817;28;20201;-68
2023/06/01 00:16:40;;;;;;;5.07;3.47;;;;;;;;;;5085242;28;20197;-68
2023/06/01 00:19:06;;;;;;;3.55;3.25;;;;;;;;;;5085024;28;20201;-68
2023/06/01 00:21:35;;;;;;;3.30;3.10;;;;;;;;;;5085122;28;20275;-68
2023/06/01 00:24:01;;;;;;;4.25;3.30;;;;;;;;;;5085070;28;20196;-68
2023/06/01 00:26:29;;;;;;;6.32;3.47;;;;;;;;;;5085155;28;20224;-68
2023/06/01 00:28:56;;;;;;;5.00;3.63;;;;;;;;;;5085049;28;20216;-68
2023/06/01 00:31:22;;;;;;;3.38;3.10;;;;;;;;;;5084869;28;20523;-68
2023/06/01 00:33:50;;;;;;;3.80;3.50;;;;;;;;;;5084781;28;20203;-68
2023/06/01 00:36:16;;;;;;;5.57;3.80;;;;;;;;;;5084683;28;20430;-68
2023/06/01 00:38:42;;;;;;;4.75;3.35;;;;;;;;;;5084938;28;20201;-68
2023/06/01 00:41:08;;;;;;;5.00;3.55;;;;;;;;;;5084684;28;20250;-68
2023/06/01 00:43:35;;;;;;;4.50;3.97;;;;;;;;;;5084783;28;20197;-68
2023/06/01 00:46:01;;;;;;;4.53;3.60;;;;;;;;;;5084389;28;20258;-69
2023/06/01 00:48:27;;;;;;;3.75;3.20;;;;;;;;;;5084643;28;20400;-68
2023/06/01 00:50:56;;;;;;;5.00;3.30;;;;;;;;;;5084549;28;20196;-68
2023/06/01 00:53:23;;;;;;;3.83;3.53;;;;;;;;;;5084590;28;20220;-68
2023/06/01 00:55:49;;;;;;;3.95;3.60;;;;;;;;;;5084286;28;20192;-68
2023/06/01 00:58:16;;;;;;;4.30;3.50;;;;;;;;;;5084241;28;20215;-68
2023/06/01 01:00:42;;;;;;;3.35;3.15;;;;;;;;;;5084480;28;20196;-68
2023/06/01 01:03:09;;;;;;;3.80;3.35;;;;;;;;;;5084392;28;20200;-68
2023/06/01 01:05:36;;;;;;;6.38;3.33;;;;;;;;;;5076026;28;20442;-68
2023/06/01 01:08:07;;;;;;;4.18;3.50;;;;;;;;;;5084261;28;20231;-69
2023/06/01 01:10:36;;;;;;;3.65;3.35;;;;;;;;;;5075160;28;20525;-68
2023/06/01 01:13:06;;;;;;;5.03;3.55;;;;;;;;;;5084255;28;20203;-68
2023/06/01 01:15:36;;;;;;;4.43;3.20;;;;;;;;;;5083937;28;20202;-68
2023/06/01 01:18:04;;;;;;;7.50;3.78;;;;;;;;;;5084422;28;20230;-68
2023/06/01 01:20:35;;;;;;;3.60;3.38;;;;;;;;;;5084163;28;20263;-68
2023/06/01 01:23:17;;;;;;;3.90;3.60;;;;;;;;;;5084159;28;20196;-68
2023/06/01 01:25:53;;;;;;;3.47;3.10;;;;;;;;;;5076524;28;20227;-68
2023/06/01 01:28:32;;;;;;;3.70;3.33;;;;;;;;;;5083616;28;20222;-68
2023/06/01 01:31:00;;;;;;;3.78;3.38;;;;;;;;;;5083313;28;20196;-68
2023/06/01 01:33:27;;;;;;;5.45;3.80;;;;;;;;;;5083711;28;20200;-68
2023/06/01 01:35:54;;;;;;;4.25;3.28;;;;;;;;;;5083673;28;20230;-68
2023/06/01 01:38:20;;;;;;;4.75;3.53;;;;;;;;;;5083966;28;20541;-68
2023/06/01 01:40:49;;;;;;;9.43;3.40;;;;;;;;;;5083781;28;20196;-68
2023/06/01 01:43:15;;;;;;;5.95;3.83;;;;;;;;;;5083583;28;20216;-68
2023/06/01 01:45:45;;;;;;;3.92;3.50;;;;;;;;;;5083297;28;20288;-68
2023/06/01 01:48:14;;;;;;;3.72;3.35;;;;;;;;;;5083353;28;20394;-68
2023/06/01 01:50:46;;;;;;;7.47;3.60;;;;;;;;;;5083346;28;20197;-68
2023/06/01 01:53:13;;;;;;;5.57;4.00;;;;;;;;;;5083425;28;20196;-68
2023/06/01 01:55:39;;;;;;;6.10;3.78;;;;;;;;;;5083272;28;20250;-68
2023/06/01 01:58:06;;;;;;;4.25;3.40;;;;;;;;;;5083392;28;20542;-69
2023/06/01 02:00:32;;;;;;;5.72;3.50;;;;;;;;;;5083252;28;20265;-68
2023/06/01 02:03:00;;;;;;;8.95;4.00;;;;;;;;;;5083660;28;20203;-69
2023/06/01 02:05:27;;;;;;;4.22;3.58;;;;;;;;;;5082897;28;20200;-68
2023/06/01 02:07:53;;;;;;;8.98;3.97;;;;;;;;;;5082995;28;20236;-69
2023/06/01 02:10:19;;;;;;;6.15;4.18;;;;;;;;;;5083021;28;20235;-68
2023/06/01 02:12:45;;;;;;;4.45;3.97;;;;;;;;;;5083018;28;20197;-68
2023/06/01 02:15:12;;;;;;;4.43;4.03;;;;;;;;;;5082786;28;20212;-68
2023/06/01 02:17:38;;;;;;;3.90;3.63;;;;;;;;;;5074619;28;20276;-68
2023/06/01 02:20:06;;;;;;;4.07;3.70;;;;;;;;;;5082893;28;20200;-68
2023/06/01 02:22:33;;;;;;;4.20;3.40;;;;;;;;;;5082653;28;20205;-68
2023/06/01 02:24:59;;;;;;;5.05;3.90;;;;;;;;;;5082696;28;20203;-68
2023/06/01 02:27:25;;;;;;;4.55;3.58;;;;;;;;;;5082548;28;20521;-68
2023/06/01 02:29:52;;;;;;;5.05;4.10;;;;;;;;;;5082622;28;20246;-68
2023/06/01 02:32:18;;;;;;;6.70;3.50;;;;;;;;;;5082433;28;20242;-68
2023/06/01 02:34:44;;;;;;;3.90;3.45;;;;;;;;;;5082327;28;20196;-68
2023/06/01 02:37:12;;;;;;;4.65;3.17;;;;;;;;;;5082796;28;20456;-68
2023/06/01 02:39:38;;;;;;;3.92;3.47;;;;;;;;;;5082366;28;20197;-68
2023/06/01 02:42:05;;;;;;;5.00;3.72;;;;;;;;;;5082383;28;20196;-68
2023/06/01 02:44:31;;;;;;;4.15;3.75;;;;;;;;;;5082649;28;20209;-68
2023/06/01 02:46:57;;;;;;;5.75;3.35;;;;;;;;;;5081996;28;20262;-68
2023/06/01 02:49:24;;;;;;;5.28;4.10;;;;;;;;;;5082229;28;20197;-68
2023/06/01 02:51:50;;;;;;;4.65;3.97;;;;;;;;;;5082355;28;20503;-68
2023/06/01 02:54:17;;;;;;;3.95;3.60;;;;;;;;;;5082030;28;20522;-68
2023/06/01 02:56:44;;;;;;;6.95;3.80;;;;;;;;;;5082374;28;20546;-68
2023/06/01 02:59:10;;;;;;;5.57;3.70;;;;;;;;;;5082213;28;20200;-68
2023/06/01 03:01:37;;;;;;;5.40;4.10;;;;;;;;;;5082264;28;20211;-68
2023/06/01 03:04:04;;;;;;;6.25;3.75;;;;;;;;;;5082152;28;20425;-68
2023/06/01 03:06:31;;;;;;;7.90;4.28;;;;;;;;;;5081763;28;20266;-68
2023/06/01 03:08:58;;;;;;;8.65;4.55;;;;;;;;;;5082199;28;20196;-68
2023/06/01 03:11:26;;;;;;;5.72;4.53;;;;;;;;;;5081854;28;20200;-69
2023/06/01 03:13:52;;;;;;;5.38;4.63;;;;;;;;;;5081745;28;20518;-69
2023/06/01 03:16:19;;;;;;;5.45;4.00;;;;;;;;;;5082122;28;20216;-69
2023/06/01 03:18:45;;;;;;;5.07;4.60;;;;;;;;;;5082232;28;20197;-67
2023/06/01 03:21:11;;;;;;;6.20;4.57;;;;;;;;;;5082032;28;20254;-68
2023/06/01 03:23:43;;;;;;;6.93;4.20;;;;;;;;;;5081763;28;20200;-68
2023/06/01 03:26:09;;;;;;;4.45;4.05;;;;;;;;;;5081946;28;20473;-68
2023/06/01 03:28:37;;;;;;;4.55;4.15;;;;;;;;;;5082031;28;20266;-68
2023/06/01 03:31:03;;;;;;;6.25;4.35;;;;;;;;;;5081750;28;20200;-68
2023/06/01 03:33:30;;;;;;;4.70;3.70;;;;;;;;;;5081070;28;20222;-68
2023/06/01 03:35:56;;;;;;;10.00;4.10;;;;;;;;;;5081638;28;20268;-68
2023/06/01 03:38:22;;;;;;;6.18;3.78;;;;;;;;;;5081743;28;20500;-68
2023/06/01 03:40:49;;;;;;;5.63;4.20;;;;;;;;;;5081892;28;20196;-69
2023/06/01 03:43:15;;;;;;;11.75;4.10;;;;;;;;;;5081629;28;20231;-68
2023/06/01 03:45:43;;;;;;;6.60;4.30;;;;;;;;;;5081350;28;20193;-68
2023/06/01 03:48:09;;;;;;;4.57;4.18;;;;;;;;;;5081871;28;20570;-68
2023/06/01 03:50:35;;;;;;;4.65;4.25;;;;;;;;;;5081573;28;20401;-68
2023/06/01 03:53:01;;;;;;;5.68;3.75;;;;;;;;;;5081620;28;20218;-68
2023/06/01 03:55:29;;;;;;;4.43;3.83;;;;;;;;;;5081238;28;20200;-68
2023/06/01 03:57:56;;;;;;;4.70;4.30;;;;;;;;;;5081776;28;20235;-68
2023/06/01 04:00:23;;;;;;;7.38;4.28;;;;;;;;;;5081826;28;20595;-68
2023/06/01 04:02:53;;;;;;;7.05;4.13;;;;;;;;;;5081525;28;20196;-68
2023/06/01 04:05:19;;;;;;;6.47;4.07;;;;;;;;;;5081166;28;20220;-68
2023/06/01 04:07:46;;;;;;;4.60;4.00;;;;;;;;;;5081408;28;20216;-68
2023/06/01 04:10:13;;;;;;;7.68;4.07;;;;;;;;;;5081373;28;20208;-68
2023/06/01 04:12:40;;;;;;;6.07;4.30;;;;;;;;;;5081431;28;20207;-68
2023/06/01 04:15:06;;;;;;;4.95;4.15;;;;;;;;;;5081300;28;20287;-69
2023/06/01 04:17:33;;;;;;;4.55;4.13;;;;;;;;;;5081179;28;20377;-69
2023/06/01 04:20:00;;;;;;;5.15;3.65;;;;;;;;;;5081349;28;20200;-68
2023/06/01 04:22:26;;;;;;;5.68;4.03;;;;;;;;;;5081187;28;20211;-67
2023/06/01 04:24:53;;;;;;;5.03;4.00;;;;;;;;;;5080976;28;20508;-68
2023/06/01 04:27:20;;;;;;;7.55;4.15;;;;;;;;;;5081219;28;20559;-68
2023/06/01 04:29:48;;;;;;;7.50;3.90;;;;;;;;;;5081250;28;20523;-69
2023/06/01 04:32:21;;;;;;;5.10;4.63;;;;;;;;;;5081378;28;20369;-68
2023/06/01 04:34:48;;;;;;;5.00;4.30;;;;;;;;;;5072949;28;20234;-68
2023/06/01 04:37:20;;;;;;;4.30;4.00;;;;;;;;;;5081679;28;20200;-68
2023/06/01 04:39:48;;;;;;;4.60;3.88;;;;;;;;;;5081151;28;20196;-69
2023/06/01 04:42:16;;;;;;;4.88;4.13;;;;;;;;;;5081394;28;20210;-69
2023/06/01 04:44:43;;;;;;;5.53;4.57;;;;;;;;;;5081724;28;20197;-69
2023/06/01 04:47:09;;;;;;;8.13;4.63;;;;;;;;;;5084710;28;20459;-68
2023/06/01 04:49:36;;;;;;;6.50;4.50;;;;;;;;;;5084563;28;20223;-68
2023/06/01 04:52:04;;;;;;;8.27;4.60;;;;;;;;;;5084343;28;20262;-68
2023/06/01 04:54:31;;;;;;;4.93;4.50;;;;;;;;;;5084375;28;20211;-68
2023/06/01 04:56:58;;;;;;;7.07;5.28;;;;;;;;;;5084585;28;20500;-68
2023/06/01 04:59:24;;;;;;;11.07;5.75;;;;;;;;;;5084758;28;20532;-68
2023/06/01 05:01:51;;;;;;;7.88;6.00;;;;;;;;;;5084389;28;20205;-68
2023/06/01 05:04:17;;;;;;;6.32;5.68;;;;;;;;;;5084635;28;20361;-68
2023/06/01 05:06:43;;;;;;;6.03;5.07;;;;;;;;;;5084297;28;20436;-68
2023/06/01 05:09:10;;;;;;;7.35;5.35;;;;;;;;;;5084459;28;20520;-68
2023/06/01 05:11:37;;;;;;;9.07;5.82;;;;;;;;;;5084111;28;20422;-68
2023/06/01 05:14:03;;;;;;;5.57;5.07;;;;;;;;;;5084139;28;20209;-68
2023/06/01 05:16:30;;;;;;;8.13;5.45;;;;;;;;;;5083911;28;20200;-68
2023/06/01 05:18:56;;;;;;;10.90;5.80;;;;;;;;;;5083946;28;20192;-68
2023/06/01 05:21:22;;;;;;;6.85;5.70;;;;;;;;;;5083932;28;20201;-68
2023/06/01 05:23:49;;;;;;;12.13;5.78;;;;;;;;;;5075579;28;20196;-68
2023/06/01 05:26:15;;;;;;;11.88;6.55;;;;;;;;;;5083917;28;20295;-68
2023/06/01 05:28:43;;;;;;;8.75;6.25;;;;;;;;;;5083829;28;20532;-68
2023/06/01 05:31:09;;;;;;;6.90;5.97;;;;;;;;;;5084262;28;20208;-68
2023/06/01 05:33:36;;;;;;;12.25;6.93;;;;;;;;;;5083452;28;20484;-68
2023/06/01 05:36:02;;;;;;;11.70;7.55;;;;;;;;;;5083704;28;20524;-68
2023/06/01 05:38:29;;;;;;;10.35;7.95;;;;;;;;;;5083558;28;20200;-68
2023/06/01 05:40:55;;;;;;;11.50;8.38;;;;;;;;;;5083673;28;20239;-68
2023/06/01 05:43:22;;;;;;;17.23;8.25;;;;;;;;;;5084071;28;20263;-68
2023/06/01 05:45:49;;;;;;;9.73;7.93;;;;;;;;;;5083523;28;20200;-68
2023/06/01 05:48:16;;;;;;;10.77;7.78;;;;;;;;;;5084191;28;20223;-68
2023/06/01 05:50:42;;;;;;;9.30;7.10;;;;;;;;;;5084889;28;20231;-69
2023/06/01 05:53:09;;;;;;;14.68;7.85;;;;;;;;;;5083507;28;20250;-68
2023/06/01 05:55:35;;;;;;;10.25;7.38;;;;;;;;;;5082847;28;20200;-68
2023/06/01 05:58:01;;;;;;;14.63;7.55;;;;;;;;;;5083168;28;20204;-68
2023/06/01 06:00:27;;;;;;;10.07;6.75;;;;;;;;;;5083024;28;20207;-68
2023/06/01 06:02:55;;;;;;;11.90;7.30;;;;;;;;;;5082995;28;20196;-68
2023/06/01 06:05:21;;;;;;;11.95;7.28;;;;;;;;;;5083041;28;20263;-68
2023/06/01 06:07:47;;;;;;;11.10;6.25;;;;;;;;;;5083065;28;20216;-68
2023/06/01 06:10:14;;;;;;;10.48;6.82;;;;;;;;;;5083068;28;20264;-68
2023/06/01 06:12:40;;;;;;;9.30;6.22;;;;;;;;;;5077771;28;20200;-60
2023/06/01 06:15:07;;;;;;;6.88;5.70;;;;;;;;;;5075313;28;20547;-59
2023/06/01 06:17:33;;;;;;;9.40;6.25;;;;;;;;;;5072247;28;20411;-59
2023/06/01 06:20:06;;;;;;;7.13;6.15;;;;;;;;;;5072739;28;20208;-59
2023/06/01 06:22:32;;;;;;;9.85;6.43;;;;;;;;;;5073244;28;20212;-59
2023/06/01 06:24:59;;;;;;;14.82;5.93;;;;;;;;;;5076145;28;20388;-60
2023/06/01 06:27:25;;;;;;;10.60;6.20;;;;;;;;;;5075671;28;20229;-59
2023/06/01 06:29:51;;;;;;;12.15;5.40;;;;;;;;;;5070526;28;20230;-59
2023/06/01 06:32:19;;;;;;;11.65;6.22;;;;;;;;;;5070840;28;20224;-59
2023/06/01 06:34:45;;;;;;;14.45;5.70;;;;;;;;;;5076344;28;20226;-60
2023/06/01 06:37:13;;;;;;;8.30;5.05;;;;;;;;;;5075591;28;20208;-59
2023/06/01 06:39:39;;;;;;;14.70;5.85;;;;;;;;;;5075773;28;20593;-59
2023/06/01 06:42:06;;;;;;;11.18;5.57;;;;;;;;;;5076969;28;20256;-59
2023/06/01 06:44:32;;;;;;;7.38;5.60;;;;;;;;;;5075616;28;20204;-59
2023/06/01 06:46:59;;;;;;;8.60;5.22;;;;;;;;;;5075119;28;20213;-59
2023/06/01 06:49:26;;;;;;;7.20;5.53;;;;;;;;;;5075682;28;20227;-59
2023/06/01 06:51:52;;;;;;;8.55;4.97;;;;;;;;;;5075849;28;20209;-59
2023/06/01 06:54:19;;;;;;;9.32;5.47;;;;;;;;;;5075398;28;20219;-59
2023/06/01 06:56:46;;;;;;;9.63;5.05;;;;;;;;;;5075785;28;20216;-59
2023/06/01 06:59:12;;;;;;;7.07;4.93;;;;;;;;;;5074608;28;20204;-59
2023/06/01 07:01:40;;;;;;;6.13;4.45;;;;;;;;;;5075239;28;20516;-59
2023/06/01 07:04:07;;;;;;;10.65;4.78;;;;;;;;;;5075754;28;20276;-58
2023/06/01 07:06:33;;;;;;;10.82;5.05;;;;;;;;;;5075876;28;20603;-58
2023/06/01 07:08:59;;;;;;;8.15;4.50;;;;;;;;;;5075411;28;20231;-59
2023/06/01 07:11:27;;;;;;;7.90;5.40;;;;;;;;;;5076697;28;20208;-59
2023/06/01 07:13:57;;;;;;;9.88;4.75;;;;;;;;;;5073281;28;20216;-59
2023/06/01 07:16:23;;;;;;;9.02;4.78;;;;;;;;;;5075824;28;20434;-59
2023/06/01 07:18:49;;;;;;;10.13;5.07;;;;;;;;;;5074932;28;20216;-59
2023/06/01 07:21:15;;;;;;;8.70;4.75;;;;;;;;;;5076148;28;20201;-59
2023/06/01 07:23:42;;;;;;;13.77;5.22;;;;;;;;;;5075637;28;20214;-59
2023/06/01 07:26:08;;;;;;;14.73;4.93;;;;;;;;;;5075548;28;20326;-59
2023/06/01 07:28:36;;;;;;;9.95;4.50;;;;;;;;;;5075438;28;20262;-59
2023/06/01 07:31:03;;;;;;;12.45;4.57;;;;;;;;;;5075341;28;20250;-59
2023/06/01 07:33:29;;;;;;;11.45;4.85;;;;;;;;;;5075309;28;20269;-59
2023/06/01 07:35:57;;;;;;;14.98;5.35;;;;;;;;;;5076089;28;20216;-60
2023/06/01 07:38:24;;;;;;;11.55;4.57;;;;;;;;;;5076229;28;20265;-59
2023/06/01 07:40:51;;;;;;;14.10;4.40;;;;;;;;;;5074775;28;20216;-59
2023/06/01 07:43:17;;;;;;;13.68;4.13;;;;;;;;;;5074714;28;20204;-59
2023/06/01 07:45:45;;;;;;;13.38;4.50;;;;;;;;;;5074597;28;20229;-59
2023/06/01 07:48:11;;;;;;;12.02;4.53;;;;;;;;;;5074853;28;20504;-59
2023/06/01 07:50:38;;;;;;;5.63;4.25;;;;;;;;;;5073609;28;20212;-59
2023/06/01 07:53:04;;;;;;;7.80;3.70;;;;;;;;;;5074148;28;20208;-59
2023/06/01 07:55:30;;;;;;;13.63;4.00;;;;;;;;;;5073862;28;20300;-59
2023/06/01 07:57:56;;;;;;;10.43;3.75;;;;;;;;;;5073860;28;20246;-60
2023/06/01 08:00:23;;;;;;;4.88;3.33;;;;;;;;;;5074062;28;20213;-60
2023/06/01 08:02:51;;;;;;;4.47;3.72;;;;;;;;;;5075070;28;20213;-59
2023/06/01 08:05:18;;;;;;;6.35;3.45;;;;;;;;;;5075552;28;20554;-61
2023/06/01 08:07:45;;;;;;;7.85;3.88;;;;;;;;;;5074712;28;20528;-60
2023/06/01 08:10:13;;;;;;;6.68;3.58;;;;;;;;;;5075564;28;20231;-60
2023/06/01 08:12:39;;;;;;;5.97;3.55;;;;;;;;;;5075258;28;20698;-59
2023/06/01 08:15:06;;;;;;;7.75;3.17;;;;;;;;;;5073977;28;20524;-60
2023/06/01 08:17:32;;;;;;;6.95;3.88;;;;;;;;;;5075550;28;20216;-60
2023/06/01 08:19:59;;;;;;;4.80;3.58;;;;;;;;;;5069663;28;20208;-60
2023/06/01 08:22:27;;;;;;;4.30;3.38;;;;;;;;;;5079408;28;20216;-59
2023/06/01 08:24:53;;;;;;;6.70;3.50;;;;;;;;;;5079057;28;20219;-60
2023/06/01 08:27:20;;;;;;;8.60;3.63;;;;;;;;;;5078429;28;20554;-60
2023/06/01 08:29:46;;;;;;;4.22;3.83;;;;;;;;;;5078158;28;20268;-60
2023/06/01 08:32:13;;;;;;;4.40;3.35;;;;;;;;;;5078574;28;20214;-60
2023/06/01 08:34:39;;;;;;;5.45;3.65;;;;;;;;;;5078235;28;20209;-61
2023/06/01 08:37:07;;;;;;;6.25;3.70;;;;;;;;;;5078162;28;20204;-60
2023/06/01 08:39:33;;;;;;;5.97;3.30;;;;;;;;;;5079083;28;20391;-63
2023/06/01 08:42:05;;;;;;;6.38;4.00;;;;;;;;;;5071954;28;20436;-59
2023/06/01 08:44:35;;;;;;;7.57;3.67;;;;;;;;;;5078290;28;20218;-60
2023/06/01 08:47:02;;;;;;;4.28;3.78;;;;;;;;;;5068601;28;20212;-60
2023/06/01 08:49:29;;;;;;;6.65;3.72;;;;;;;;;;5081383;28;20227;-60
2023/06/01 08:51:57;;;;;;;8.07;3.85;;;;;;;;;;5078059;28;20212;-60
2023/06/01 08:54:25;;;;;;;5.28;3.97;;;;;;;;;;5075163;28;20208;-60
2023/06/01 08:56:51;;;;;;;5.47;3.65;;;;;;;;;;5081018;28;20239;-60
2023/06/01 08:59:17;;;;;;;7.72;4.07;;;;;;;;;;5082117;28;20252;-60
2023/06/01 09:01:44;;;;;;;6.35;3.58;;;;;;;;;;5073780;28;20208;-60
2023/06/01 09:04:10;;;;;;;7.13;3.80;;;;;;;;;;5075184;28;20255;-60
2023/06/01 09:06:37;;;;;;;6.65;3.70;;;;;;;;;;5075309;28;20258;-60
2023/06/01 09:09:03;;;;;;;4.68;3.60;;;;;;;;;;5077578;28;20548;-60
2023/06/01 09:11:31;;;;;;;5.05;3.83;;;;;;;;;;5077539;28;20443;-61
2023/06/01 09:13:57;;;;;;;5.43;3.80;;;;;;;;;;5080630;28;20451;-61
2023/06/01 09:16:35;;;;;;;7.88;3.60;;;;;;;;;;5075201;28;20254;-61
2023/06/01 09:19:01;;;;;;;7.70;3.63;;;;;;;;;;5073765;28;20589;-60
2023/06/01 09:21:28;;;;;;;5.22;3.90;;;;;;;;;;5070787;28;20516;-61
2023/06/01 09:23:54;;;;;;;6.85;3.83;;;;;;;;;;5072337;28;20326;-60
2023/06/01 09:26:26;;;;;;;8.43;4.07;;;;;;;;;;5070354;28;20215;-60
2023/06/01 09:28:54;;;;;;;6.43;3.38;;;;;;;;;;5072847;28;20285;-60
2023/06/01 09:31:35;;;;;;;8.77;3.80;;;;;;;;;;5073236;28;20618;-60
2023/06/01 09:34:02;;;;;;;5.15;3.55;;;;;;;;;;5080005;28;20245;-59
2023/06/01 09:36:28;;;;;;;12.45;4.28;;;;;;;;;;5080917;28;20212;-59
2023/06/01 09:39:00;;;;;;;11.23;3.92;;;;;;;;;;5080364;28;20272;-59
2023/06/01 09:41:31;;;;;;;4.00;3.67;;;;;;;;;;5082024;28;20519;-59
2023/06/01 09:43:58;;;;;;;6.82;4.20;;;;;;;;;;5066320;28;20212;-59
2023/06/01 09:46:24;;;;;;;10.73;4.57;;;;;;;;;;5075031;28;20527;-60
2023/06/01 09:49:05;;;;;;;5.03;4.03;;;;;;;;;;5080189;28;20273;-60
2023/06/01 09:51:31;;;;;;;4.28;3.45;;;;;;;;;;5080691;28;20211;-61
2023/06/01 09:53:57;;;;;;;7.28;3.65;;;;;;;;;;5069593;28;20273;-61
2023/06/01 09:56:25;;;;;;;5.43;3.85;;;;;;;;;;5067046;28;20209;-61
2023/06/01 09:58:56;;;;;;;6.53;4.15;;;;;;;;;;5075696;28;20208;-61
2023/06/01 10:01:24;;;;;;;6.18;3.80;;;;;;;;;;5079960;28;20451;-60
2023/06/01 10:03:53;;;;;;;7.60;4.30;;;;;;;;;;5078247;28;20531;-60
2023/06/01 10:06:19;;;;;;;6.07;4.07;;;;;;;;;;5074929;28;20216;-61
2023/06/01 10:08:47;;;;;;;5.30;4.15;;;;;;;;;;5076455;28;20550;-61
2023/06/01 10:11:14;;;;;;;8.00;4.15;;;;;;;;;;5072639;28;20245;-59
2023/06/01 10:13:41;;;;;;;4.50;4.00;;;;;;;;;;5080611;28;20240;-60
2023/06/01 10:16:07;;;;;;;9.55;4.18;;;;;;;;;;5081072;28;20246;-59
2023/06/01 10:18:35;;;;;;;7.90;4.20;;;;;;;;;;5072672;28;20208;-60
2023/06/01 10:21:02;;;;;;;6.00;4.10;;;;;;;;;;5072004;28;20208;-60
2023/06/01 10:23:28;;;;;;;5.50;3.88;;;;;;;;;;5078394;28;20453;-59
2023/06/01 10:25:55;;;;;;;8.48;4.03;;;;;;;;;;5075498;28;20212;-60
2023/06/01 10:28:23;;;;;;;4.38;3.70;;;;;;;;;;5075601;28;20232;-59
2023/06/01 10:31:23;;;;;;;8.65;4.13;;;;;;;;;;5079580;28;20212;-60
2023/06/01 10:33:54;;;;;;;6.95;4.10;;;;;;;;;;5069241;28;20487;-60
2023/06/01 10:36:20;;;;;;;8.85;4.55;;;;;;;;;;5081168;28;20511;-61
2023/06/01 10:38:47;;;;;;;9.05;4.43;;;;;;;;;;5075412;28;20219;-61
2023/06/01 10:41:27;;;;;;;5.55;4.20;;;;;;;;;;5078557;28;20216;-61
2023/06/01 10:43:53;;;;;;;6.78;4.10;;;;;;;;;;5073070;28;20218;-59
2023/06/01 10:46:40;;;;;;;7.00;3.90;;;;;;;;;;5080571;28;20585;-59
2023/06/01 10:49:08;;;;;;;5.45;4.00;;;;;;;;;;5077324;28;20237;-59
2023/06/01 10:51:34;;;;;;;6.00;3.92;;;;;;;;;;5080462;28;20212;-59
2023/06/01 10:54:15;;;;;;;8.90;4.47;;;;;;;;;;5071371;28;20534;-60
2023/06/01 10:56:42;;;;;;;4.53;3.90;;;;;;;;;;5058940;28;20340;-60
2023/06/01 10:59:11;;;;;;;9.73;3.58;;;;;;;;;;5076570;28;20243;-59
2023/06/01 11:01:38;;;;;;;5.32;3.70;;;;;;;;;;5079599;28;20216;-59
2023/06/01 11:04:05;;;;;;;7.88;4.20;;;;;;;;;;5068176;28;20434;-59
2023/06/01 11:06:35;;;;;;;4.63;4.00;;;;;;;;;;5080401;28;20230;-60
2023/06/01 11:09:05;;;;;;;4.50;3.65;;;;;;;;;;5070809;28;20290;-59
2023/06/01 11:11:51;;;;;;;7.03;4.20;;;;;;;;;;5078868;28;20231;-60
2023/06/01 11:14:19;;;;;;;7.57;4.32;;;;;;;;;;5072057;28;20211;-61
2023/06/01 11:16:45;;;;;;;7.07;3.55;;;;;;;;;;5078958;28;20244;-60
2023/06/01 11:19:17;;;;;;;4.55;3.60;;;;;;;;;;5079384;28;20204;-61
2023/06/01 11:21:45;;;;;;;4.82;4.00;;;;;;;;;;5079575;28;20511;-60
2023/06/01 11:24:13;;;;;;;7.28;3.85;;;;;;;;;;5063911;28;20215;-60
2023/06/01 11:26:40;;;;;;;5.35;4.00;;;;;;;;;;5076925;28;20219;-60
2023/06/01 11:29:08;;;;;;;6.30;3.78;;;;;;;;;;5071602;28;20236;-59
2023/06/01 11:31:37;;;;;;;4.22;3.85;;;;;;;;;;5079353;28;20519;-60
2023/06/01 11:34:03;;;;;;;6.30;4.10;;;;;;;;;;5076390;28;20520;-60
2023/06/01 11:36:29;;;;;;;8.55;4.13;;;;;;;;;;5074604;28;20245;-60
2023/06/01 11:38:57;;;;;;;4.57;4.00;;;;;;;;;;5078350;28;20212;-60
2023/06/01 11:41:23;;;;;;;4.53;4.05;;;;;;;;;;5075186;28;20543;-60
2023/06/01 11:43:55;;;;;;;4.03;3.67;;;;;;;;;;5074871;28;20581;-60
2023/06/01 11:46:21;;;;;;;4.47;4.05;;;;;;;;;;5076708;28;20215;-59
2023/06/01 11:49:01;;;;;;;5.47;3.92;;;;;;;;;;5075148;28;20261;-60
2023/06/01 11:51:27;;;;;;;7.75;4.45;;;;;;;;;;5074859;28;20522;-59
2023/06/01 11:53:54;;;;;;;7.45;4.38;;;;;;;;;;5076011;28;20207;-60
2023/06/01 11:56:28;;;;;;;11.02;4.10;;;;;;;;;;5078897;28;20203;-60
2023/06/01 11:58:57;;;;;;;4.88;4.18;;;;;;;;;;5079210;28;20442;-60
2023/06/01 12:01:23;;;;;;;6.53;4.07;;;;;;;;;;5079310;28;20297;-60
2023/06/01 12:03:49;;;;;;;6.43;4.10;;;;;;;;;;5079517;28;20211;-60
2023/06/01 12:06:19;;;;;;;4.65;4.25;;;;;;;;;;5079622;28;20208;-60
2023/06/01 12:08:45;;;;;;;5.95;4.38;;;;;;;;;;5079897;28;20208;-60
2023/06/01 12:11:14;;;;;;;4.18;3.88;;;;;;;;;;5078299;28;20208;-61
2023/06/01 12:13:42;;;;;;;5.88;4.53;;;;;;;;;;5077992;28;20493;-61
2023/06/01 12:16:08;;;;;;;5.65;4.40;;;;;;;;;;5078208;28;20216;-62
2023/06/01 12:18:35;;;;;;;5.20;4.20;;;;;;;;;;5078338;28;20212;-61
2023/06/01 12:21:09;;;;;;;4.85;4.13;;;;;;;;;;5078594;28;20572;-61
2023/06/01 12:23:35;;;;;;;5.45;4.15;;;;;;;;;;5079027;28;20212;-61
2023/06/01 12:26:01;;;;;;;7.38;4.20;;;;;;;;;;5077756;28;20211;-60
2023/06/01 12:28:29;;;;;;;4.88;4.30;;;;;;;;;;5078120;28;20232;-60
2023/06/01 12:31:10;;;;;;;7.28;4.50;;;;;;;;;;5078159;28;20224;-60
2023/06/01 12:33:36;;;;;;;10.40;4.63;;;;;;;;;;5078448;28;20211;-60
2023/06/01 12:36:03;;;;;;;5.50;4.13;;;;;;;;;;5078545;28;20287;-60
2023/06/01 12:38:35;;;;;;;7.60;4.03;;;;;;;;;;5078542;28;20531;-60
2023/06/01 12:41:08;;;;;;;4.82;3.67;;;;;;;;;;5079102;28;20208;-59
2023/06/01 12:43:34;;;;;;;4.60;4.07;;;;;;;;;;5075694;28;20208;-60
2023/06/01 12:46:01;;;;;;;7.07;4.10;;;;;;;;;;5078002;28;20460;-60
2023/06/01 12:48:32;;;;;;;4.93;4.15;;;;;;;;;;5077775;28;20222;-60
2023/06/01 12:50:58;;;;;;;8.13;4.25;;;;;;;;;;5076025;28;20419;-60
2023/06/01 12:53:25;;;;;;;5.57;3.67;;;;;;;;;;5079339;28;20462;-60
2023/06/01 12:55:51;;;;;;;6.28;3.47;;;;;;;;;;5077998;28;20218;-60
2023/06/01 12:58:17;;;;;;;4.97;4.07;;;;;;;;;;5077852;28;20207;-60
2023/06/01 13:00:43;;;;;;;4.63;3.88;;;;;;;;;;5077851;28;20245;-60
2023/06/01 13:03:09;;;;;;;5.22;4.13;;;;;;;;;;5077974;28;20208;-60
2023/06/01 13:05:38;;;;;;;4.88;4.10;;;;;;;;;;5076570;28;20216;-60
2023/06/01 13:08:04;;;;;;;4.15;3.80;;;;;;;;;;5078088;28;20208;-59
2023/06/01 13:10:30;;;;;;;6.13;3.67;;;;;;;;;;5077924;28;20565;-60
2023/06/01 13:12:57;;;;;;;7.45;3.83;;;;;;;;;;5078595;28;20454;-59
2023/06/01 13:15:23;;;;;;;5.15;3.70;;;;;;;;;;5078476;28;20577;-60
2023/06/01 13:17:49;;;;;;;5.85;4.15;;;;;;;;;;5077631;28;20211;-60
2023/06/01 13:20:16;;;;;;;6.45;3.80;;;;;;;;;;5077791;28;20463;-61
2023/06/01 13:22:44;;;;;;;5.97;3.50;;;;;;;;;;5078358;28;20572;-61
2023/06/01 13:25:10;;;;;;;8.02;4.15;;;;;;;;;;5077837;28;20261;-61
2023/06/01 13:27:36;;;;;;;7.55;4.00;;;;;;;;;;5077526;28;20236;-61
2023/06/01 13:30:03;;;;;;;4.97;3.67;;;;;;;;;;5077590;28;20544;-61
2023/06/01 13:32:30;;;;;;;5.70;3.90;;;;;;;;;;5078968;28;20618;-60
2023/06/01 13:34:57;;;;;;;6.40;3.53;;;;;;;;;;5079065;28;20211;-60
2023/06/01 13:37:23;;;;;;;7.25;3.60;;;;;;;;;;5077652;28;20444;-61
2023/06/01 13:39:51;;;;;;;5.95;3.88;;;;;;;;;;5077539;28;20215;-61
2023/06/01 13:42:17;;;;;;;7.15;3.60;;;;;;;;;;5076668;28;20212;-61
2023/06/01 13:44:45;;;;;;;3.53;3.22;;;;;;;;;;5077639;28;20211;-60
2023/06/01 13:47:11;;;;;;;6.10;3.60;;;;;;;;;;5077694;28;20519;-61
2023/06/01 13:49:38;;;;;;;8.63;3.60;;;;;;;;;;5077345;28;20769;-61
2023/06/01 13:52:04;;;;;;;5.28;3.67;;;;;;;;;;5077999;28;20531;-61
2023/06/01 13:54:31;;;;;;;5.03;3.60;;;;;;;;;;5076573;28;20223;-60
2023/06/01 13:56:58;;;;;;;5.25;3.72;;;;;;;;;;5077952;28;20273;-61
2023/06/01 13:59:24;;;;;;;5.45;4.10;;;;;;;;;;5076814;28;20253;-60
2023/06/01 14:01:51;;;;;;;6.90;3.95;;;;;;;;;;5077172;28;20220;-61
2023/06/01 14:04:18;;;;;;;5.22;3.83;;;;;;;;;;5077317;28;20546;-61
2023/06/01 14:06:44;;;;;;;8.32;3.92;;;;;;;;;;5077861;28;20216;-61
2023/06/01 14:09:11;;;;;;;4.60;3.33;;;;;;;;;;5077843;28;20538;-61
2023/06/01 14:11:37;;;;;;;5.40;4.10;;;;;;;;;;5077494;28;20281;-60
2023/06/01 14:14:04;;;;;;;8.57;4.10;;;;;;;;;;5076504;28;20569;-60
2023/06/01 14:16:31;;;;;;;7.13;3.35;;;;;;;;;;5077804;28;20208;-60
2023/06/01 14:18:57;;;;;;;3.58;3.13;;;;;;;;;;5078015;28;20216;-60
2023/06/01 14:21:23;;;;;;;6.25;3.53;;;;;;;;;;5077699;28;20388;-60
2023/06/01 14:23:49;;;;;;;8.25;3.70;;;;;;;;;;5077398;28;20266;-59
2023/06/01 14:26:16;;;;;;;4.55;3.20;;;;;;;;;;5077523;28;20208;-60
2023/06/01 14:28:42;;;;;;;13.90;3.80;;;;;;;;;;5077643;28;20265;-60
2023/06/01 14:31:09;;;;;;;6.43;2.97;;;;;;;;;;5077401;28;20231;-69
2023/06/01 14:33:36;;;;;;;8.20;3.63;;;;;;;;;;5076206;28;20426;-70
2023/06/01 14:36:04;;;;;;;3.33;3.10;;;;;;;;;;5077104;28;20253;-70
2023/06/01 14:38:30;;;;;;;6.07;3.40;;;;;;;;;;5077477;28;20406;-69
2023/06/01 14:40:56;;;;;;;5.90;3.25;;;;;;;;;;5077849;28;20410;-69
2023/06/01 14:43:23;;;;;;;4.95;2.67;;;;;;;;;;5077524;28;20204;-69